sensor_id;sensor_type;location;lat;lon;timestamp;P1;durP1;ratioP1;P2;durP2;ratioP2
60612;SDS011;46443;59.792;17.626;2022-10-31T00:01:26;5.03;;;2.33;;
60612;SDS011;46443;59.792;17.626;2022-10-31T00:03:53;3.83;;;2.00;;
60612;SDS011;46443;59.792;17.626;2022-10-31T00:06:19;3.10;;;1.90;;
60612;SDS011;46443;59.792;17.626;2022-10-31T00:08:46;4.87;;;2.13;;
60612;SDS011;46443;59.792;17.626;2022-10-31T00:11:12;4.63;;;2.27;;
60612;SDS011;46443;59.792;17.626;2022-10-31T00:13:38;3.13;;;2.00;;
60612;SDS011;46443;59.792;17.626;2022-10-31T00:16:12;3.40;;;1.90;;
60612;SDS011;46443;59.792;17.626;2022-10-31T00:18:38;4.73;;;2.33;;
60612;SDS011;46443;59.792;17.626;2022-10-31T00:21:04;3.33;;;1.93;;
60612;SDS011;46443;59.792;17.626;2022-10-31T00:23:30;5.63;;;2.40;;
60612;SDS011;46443;59.792;17.626;2022-10-31T00:26:00;3.07;;;2.20;;
60612;SDS011;46443;59.792;17.626;2022-10-31T00:30:52;4.23;;;2.20;;
60612;SDS011;46443;59.792;17.626;2022-10-31T00:33:18;5.40;;;2.30;;
60612;SDS011;46443;59.792;17.626;2022-10-31T00:35:50;5.53;;;2.40;;
60612;SDS011;46443;59.792;17.626;2022-10-31T00:38:16;6.03;;;2.50;;
60612;SDS011;46443;59.792;17.626;2022-10-31T00:40:42;3.60;;;2.07;;
60612;SDS011;46443;59.792;17.626;2022-10-31T00:43:08;5.27;;;2.40;;
60612;SDS011;46443;59.792;17.626;2022-10-31T00:45:34;6.57;;;2.50;;
60612;SDS011;46443;59.792;17.626;2022-10-31T00:48:00;6.73;;;2.80;;
60612;SDS011;46443;59.792;17.626;2022-10-31T00:50:27;5.40;;;2.53;;
60612;SDS011;46443;59.792;17.626;2022-10-31T00:52:53;7.63;;;2.30;;
60612;SDS011;46443;59.792;17.626;2022-10-31T00:55:18;4.47;;;2.67;;
60612;SDS011;46443;59.792;17.626;2022-10-31T00:57:48;5.00;;;2.43;;
60612;SDS011;46443;59.792;17.626;2022-10-31T01:00:14;5.57;;;2.50;;
60612;SDS011;46443;59.792;17.626;2022-10-31T01:02:40;5.20;;;2.60;;
60612;SDS011;46443;59.792;17.626;2022-10-31T01:05:06;5.13;;;2.60;;
60612;SDS011;46443;59.792;17.626;2022-10-31T01:07:35;5.23;;;2.80;;
60612;SDS011;46443;59.792;17.626;2022-10-31T01:10:01;3.93;;;2.13;;
60612;SDS011;46443;59.792;17.626;2022-10-31T01:12:27;5.33;;;2.57;;
60612;SDS011;46443;59.792;17.626;2022-10-31T01:14:53;5.40;;;2.60;;
60612;SDS011;46443;59.792;17.626;2022-10-31T01:17:19;7.40;;;2.77;;
60612;SDS011;46443;59.792;17.626;2022-10-31T01:19:45;6.10;;;2.83;;
60612;SDS011;46443;59.792;17.626;2022-10-31T01:22:11;7.17;;;2.80;;
60612;SDS011;46443;59.792;17.626;2022-10-31T01:24:37;7.90;;;2.63;;
60612;SDS011;46443;59.792;17.626;2022-10-31T01:27:03;7.27;;;2.90;;
60612;SDS011;46443;59.792;17.626;2022-10-31T01:29:29;9.23;;;3.27;;
60612;SDS011;46443;59.792;17.626;2022-10-31T01:31:55;9.63;;;3.17;;
60612;SDS011;46443;59.792;17.626;2022-10-31T01:34:21;6.17;;;2.60;;
60612;SDS011;46443;59.792;17.626;2022-10-31T01:36:47;7.97;;;2.87;;
60612;SDS011;46443;59.792;17.626;2022-10-31T01:39:16;6.43;;;3.03;;
60612;SDS011;46443;59.792;17.626;2022-10-31T01:41:46;8.77;;;3.33;;
60612;SDS011;46443;59.792;17.626;2022-10-31T01:46:40;5.97;;;3.17;;
60612;SDS011;46443;59.792;17.626;2022-10-31T01:49:14;6.27;;;2.73;;
60612;SDS011;46443;59.792;17.626;2022-10-31T01:51:44;6.23;;;2.83;;
60612;SDS011;46443;59.792;17.626;2022-10-31T01:54:14;8.50;;;3.07;;
60612;SDS011;46443;59.792;17.626;2022-10-31T01:56:42;5.10;;;2.93;;
60612;SDS011;46443;59.792;17.626;2022-10-31T01:59:09;6.43;;;2.90;;
60612;SDS011;46443;59.792;17.626;2022-10-31T02:01:37;6.30;;;3.03;;
60612;SDS011;46443;59.792;17.626;2022-10-31T02:04:03;5.67;;;2.80;;
60612;SDS011;46443;59.792;17.626;2022-10-31T02:06:37;7.13;;;3.13;;
60612;SDS011;46443;59.792;17.626;2022-10-31T02:09:05;5.97;;;2.83;;
60612;SDS011;46443;59.792;17.626;2022-10-31T02:11:31;5.90;;;2.93;;
60612;SDS011;46443;59.792;17.626;2022-10-31T02:13:58;8.03;;;3.20;;
60612;SDS011;46443;59.792;17.626;2022-10-31T02:16:25;5.70;;;3.20;;
60612;SDS011;46443;59.792;17.626;2022-10-31T02:18:51;7.57;;;3.57;;
60612;SDS011;46443;59.792;17.626;2022-10-31T02:21:19;6.07;;;2.90;;
60612;SDS011;46443;59.792;17.626;2022-10-31T02:23:58;6.47;;;3.60;;
60612;SDS011;46443;59.792;17.626;2022-10-31T02:26:32;7.20;;;3.10;;
60612;SDS011;46443;59.792;17.626;2022-10-31T02:31:47;8.20;;;3.70;;
60612;SDS011;46443;59.792;17.626;2022-10-31T02:34:18;7.23;;;3.77;;
60612;SDS011;46443;59.792;17.626;2022-10-31T02:36:48;9.03;;;3.50;;
60612;SDS011;46443;59.792;17.626;2022-10-31T02:42:04;9.70;;;3.50;;
60612;SDS011;46443;59.792;17.626;2022-10-31T02:44:38;5.72;;;3.20;;
60612;SDS011;46443;59.792;17.626;2022-10-31T02:47:06;8.63;;;3.20;;
60612;SDS011;46443;59.792;17.626;2022-10-31T02:52:20;4.50;;;2.87;;
60612;SDS011;46443;59.792;17.626;2022-10-31T02:54:47;6.70;;;2.80;;
60612;SDS011;46443;59.792;17.626;2022-10-31T02:57:13;6.37;;;2.80;;
60612;SDS011;46443;59.792;17.626;2022-10-31T02:59:40;7.03;;;3.07;;
60612;SDS011;46443;59.792;17.626;2022-10-31T03:07:41;5.10;;;2.70;;
60612;SDS011;46443;59.792;17.626;2022-10-31T03:12:38;4.93;;;2.80;;
60612;SDS011;46443;59.792;17.626;2022-10-31T03:17:41;5.03;;;2.70;;
60612;SDS011;46443;59.792;17.626;2022-10-31T03:20:10;5.97;;;2.90;;
60612;SDS011;46443;59.792;17.626;2022-10-31T03:22:36;9.20;;;3.03;;
60612;SDS011;46443;59.792;17.626;2022-10-31T03:25:04;6.17;;;3.10;;
60612;SDS011;46443;59.792;17.626;2022-10-31T03:27:31;6.13;;;2.90;;
60612;SDS011;46443;59.792;17.626;2022-10-31T03:29:59;6.40;;;2.97;;
60612;SDS011;46443;59.792;17.626;2022-10-31T03:32:45;5.33;;;2.73;;
60612;SDS011;46443;59.792;17.626;2022-10-31T03:35:14;6.83;;;3.03;;
60612;SDS011;46443;59.792;17.626;2022-10-31T03:37:41;8.53;;;3.33;;
60612;SDS011;46443;59.792;17.626;2022-10-31T03:40:08;7.13;;;3.20;;
60612;SDS011;46443;59.792;17.626;2022-10-31T03:42:37;6.13;;;3.20;;
60612;SDS011;46443;59.792;17.626;2022-10-31T03:45:14;7.43;;;3.47;;
60612;SDS011;46443;59.792;17.626;2022-10-31T03:47:42;9.60;;;3.50;;
60612;SDS011;46443;59.792;17.626;2022-10-31T03:50:09;8.93;;;3.70;;
60612;SDS011;46443;59.792;17.626;2022-10-31T03:52:44;8.90;;;4.30;;
60612;SDS011;46443;59.792;17.626;2022-10-31T03:57:43;8.00;;;4.37;;
60612;SDS011;46443;59.792;17.626;2022-10-31T04:00:11;9.50;;;4.07;;
60612;SDS011;46443;59.792;17.626;2022-10-31T04:02:39;10.33;;;4.40;;
60612;SDS011;46443;59.792;17.626;2022-10-31T04:05:06;13.00;;;4.53;;
60612;SDS011;46443;59.792;17.626;2022-10-31T04:07:35;14.93;;;5.00;;
60612;SDS011;46443;59.792;17.626;2022-10-31T04:10:04;11.27;;;4.27;;
60612;SDS011;46443;59.792;17.626;2022-10-31T04:12:30;14.60;;;4.73;;
60612;SDS011;46443;59.792;17.626;2022-10-31T04:14:58;10.73;;;4.50;;
60612;SDS011;46443;59.792;17.626;2022-10-31T04:17:25;12.70;;;4.67;;
60612;SDS011;46443;59.792;17.626;2022-10-31T04:19:53;12.13;;;4.77;;
60612;SDS011;46443;59.792;17.626;2022-10-31T04:22:19;15.70;;;5.00;;
60612;SDS011;46443;59.792;17.626;2022-10-31T04:24:45;16.83;;;4.70;;
60612;SDS011;46443;59.792;17.626;2022-10-31T04:27:11;12.57;;;4.63;;
60612;SDS011;46443;59.792;17.626;2022-10-31T04:29:37;11.43;;;5.13;;
60612;SDS011;46443;59.792;17.626;2022-10-31T04:32:03;11.07;;;5.00;;
60612;SDS011;46443;59.792;17.626;2022-10-31T04:34:29;13.83;;;4.90;;
60612;SDS011;46443;59.792;17.626;2022-10-31T04:36:55;13.90;;;5.10;;
60612;SDS011;46443;59.792;17.626;2022-10-31T04:39:21;11.53;;;4.50;;
60612;SDS011;46443;59.792;17.626;2022-10-31T04:41:47;10.93;;;4.80;;
60612;SDS011;46443;59.792;17.626;2022-10-31T04:44:13;12.83;;;5.43;;
60612;SDS011;46443;59.792;17.626;2022-10-31T04:46:39;12.40;;;5.03;;
60612;SDS011;46443;59.792;17.626;2022-10-31T04:49:05;13.30;;;5.03;;
60612;SDS011;46443;59.792;17.626;2022-10-31T04:51:31;10.37;;;4.53;;
60612;SDS011;46443;59.792;17.626;2022-10-31T04:53:57;15.07;;;5.30;;
60612;SDS011;46443;59.792;17.626;2022-10-31T04:56:23;11.10;;;4.97;;
60612;SDS011;46443;59.792;17.626;2022-10-31T04:58:49;10.73;;;5.10;;
60612;SDS011;46443;59.792;17.626;2022-10-31T05:01:15;15.13;;;5.57;;
60612;SDS011;46443;59.792;17.626;2022-10-31T05:03:41;15.17;;;5.17;;
60612;SDS011;46443;59.792;17.626;2022-10-31T05:06:07;10.03;;;4.90;;
60612;SDS011;46443;59.792;17.626;2022-10-31T05:08:33;15.90;;;5.37;;
60612;SDS011;46443;59.792;17.626;2022-10-31T05:11:03;15.80;;;5.27;;
60612;SDS011;46443;59.792;17.626;2022-10-31T05:13:29;11.13;;;5.22;;
60612;SDS011;46443;59.792;17.626;2022-10-31T05:15:55;12.73;;;5.37;;
60612;SDS011;46443;59.792;17.626;2022-10-31T05:18:21;10.93;;;4.77;;
60612;SDS011;46443;59.792;17.626;2022-10-31T05:20:48;15.13;;;5.07;;
60612;SDS011;46443;59.792;17.626;2022-10-31T05:23:14;11.67;;;4.83;;
60612;SDS011;46443;59.792;17.626;2022-10-31T05:25:40;12.57;;;5.43;;
60612;SDS011;46443;59.792;17.626;2022-10-31T05:28:06;10.77;;;5.30;;
60612;SDS011;46443;59.792;17.626;2022-10-31T05:30:33;10.03;;;4.83;;
60612;SDS011;46443;59.792;17.626;2022-10-31T05:32:59;10.67;;;4.90;;
60612;SDS011;46443;59.792;17.626;2022-10-31T05:35:27;11.73;;;4.67;;
60612;SDS011;46443;59.792;17.626;2022-10-31T05:37:53;9.00;;;4.27;;
60612;SDS011;46443;59.792;17.626;2022-10-31T05:40:19;12.47;;;5.13;;
60612;SDS011;46443;59.792;17.626;2022-10-31T05:42:46;11.47;;;5.10;;
60612;SDS011;46443;59.792;17.626;2022-10-31T05:45:16;10.77;;;4.77;;
60612;SDS011;46443;59.792;17.626;2022-10-31T05:47:42;10.13;;;4.77;;
60612;SDS011;46443;59.792;17.626;2022-10-31T05:50:15;15.63;;;5.80;;
60612;SDS011;46443;59.792;17.626;2022-10-31T05:52:41;10.90;;;4.90;;
60612;SDS011;46443;59.792;17.626;2022-10-31T05:55:07;10.50;;;4.97;;
60612;SDS011;46443;59.792;17.626;2022-10-31T05:57:33;11.47;;;4.83;;
60612;SDS011;46443;59.792;17.626;2022-10-31T05:59:59;10.30;;;5.13;;
60612;SDS011;46443;59.792;17.626;2022-10-31T06:02:25;15.80;;;5.50;;
60612;SDS011;46443;59.792;17.626;2022-10-31T06:04:51;12.90;;;5.43;;
60612;SDS011;46443;59.792;17.626;2022-10-31T06:07:17;13.13;;;6.00;;
60612;SDS011;46443;59.792;17.626;2022-10-31T06:09:43;11.97;;;5.43;;
60612;SDS011;46443;59.792;17.626;2022-10-31T06:12:10;13.00;;;5.27;;
60612;SDS011;46443;59.792;17.626;2022-10-31T06:14:36;11.97;;;5.53;;
60612;SDS011;46443;59.792;17.626;2022-10-31T06:17:02;12.97;;;5.23;;
60612;SDS011;46443;59.792;17.626;2022-10-31T06:19:28;12.67;;;5.83;;
60612;SDS011;46443;59.792;17.626;2022-10-31T06:21:54;12.50;;;5.97;;
60612;SDS011;46443;59.792;17.626;2022-10-31T06:24:20;10.87;;;5.27;;
60612;SDS011;46443;59.792;17.626;2022-10-31T06:26:46;13.00;;;6.37;;
60612;SDS011;46443;59.792;17.626;2022-10-31T06:29:12;12.50;;;6.40;;
60612;SDS011;46443;59.792;17.626;2022-10-31T06:31:38;13.53;;;6.27;;
60612;SDS011;46443;59.792;17.626;2022-10-31T06:34:04;11.60;;;5.90;;
60612;SDS011;46443;59.792;17.626;2022-10-31T06:36:30;12.53;;;6.17;;
60612;SDS011;46443;59.792;17.626;2022-10-31T06:38:56;13.93;;;6.40;;
60612;SDS011;46443;59.792;17.626;2022-10-31T06:41:22;13.37;;;6.43;;
60612;SDS011;46443;59.792;17.626;2022-10-31T06:43:48;12.53;;;6.07;;
60612;SDS011;46443;59.792;17.626;2022-10-31T06:46:14;13.40;;;6.10;;
60612;SDS011;46443;59.792;17.626;2022-10-31T06:48:40;13.90;;;5.97;;
60612;SDS011;46443;59.792;17.626;2022-10-31T06:51:07;12.43;;;6.37;;
60612;SDS011;46443;59.792;17.626;2022-10-31T06:53:33;12.80;;;6.50;;
60612;SDS011;46443;59.792;17.626;2022-10-31T06:55:59;15.60;;;7.20;;
60612;SDS011;46443;59.792;17.626;2022-10-31T06:58:25;17.63;;;7.80;;
60612;SDS011;46443;59.792;17.626;2022-10-31T07:00:51;19.17;;;7.10;;
60612;SDS011;46443;59.792;17.626;2022-10-31T07:03:17;13.73;;;6.97;;
60612;SDS011;46443;59.792;17.626;2022-10-31T07:05:45;20.97;;;8.17;;
60612;SDS011;46443;59.792;17.626;2022-10-31T07:08:11;17.73;;;7.43;;
60612;SDS011;46443;59.792;17.626;2022-10-31T07:10:38;18.97;;;7.47;;
60612;SDS011;46443;59.792;17.626;2022-10-31T07:13:05;18.90;;;7.00;;
60612;SDS011;46443;59.792;17.626;2022-10-31T07:15:33;18.17;;;6.83;;
60612;SDS011;46443;59.792;17.626;2022-10-31T07:18:00;19.27;;;7.90;;
60612;SDS011;46443;59.792;17.626;2022-10-31T07:20:26;18.43;;;7.53;;
60612;SDS011;46443;59.792;17.626;2022-10-31T07:22:52;18.67;;;7.10;;
60612;SDS011;46443;59.792;17.626;2022-10-31T07:25:19;19.43;;;8.23;;
60612;SDS011;46443;59.792;17.626;2022-10-31T07:27:45;20.40;;;6.73;;
60612;SDS011;46443;59.792;17.626;2022-10-31T07:30:12;18.27;;;7.67;;
60612;SDS011;46443;59.792;17.626;2022-10-31T07:32:39;16.10;;;7.43;;
60612;SDS011;46443;59.792;17.626;2022-10-31T07:35:06;19.27;;;7.23;;
60612;SDS011;46443;59.792;17.626;2022-10-31T07:37:32;22.40;;;7.13;;
60612;SDS011;46443;59.792;17.626;2022-10-31T07:39:59;20.00;;;7.20;;
60612;SDS011;46443;59.792;17.626;2022-10-31T07:42:25;20.47;;;7.33;;
60612;SDS011;46443;59.792;17.626;2022-10-31T07:44:51;18.93;;;6.87;;
60612;SDS011;46443;59.792;17.626;2022-10-31T07:47:17;17.50;;;6.50;;
60612;SDS011;46443;59.792;17.626;2022-10-31T07:49:43;15.67;;;7.07;;
60612;SDS011;46443;59.792;17.626;2022-10-31T07:52:09;20.07;;;7.20;;
60612;SDS011;46443;59.792;17.626;2022-10-31T07:54:35;18.43;;;7.43;;
60612;SDS011;46443;59.792;17.626;2022-10-31T07:57:01;19.77;;;7.10;;
60612;SDS011;46443;59.792;17.626;2022-10-31T07:59:27;24.50;;;7.57;;
60612;SDS011;46443;59.792;17.626;2022-10-31T08:01:53;39.80;;;8.67;;
60612;SDS011;46443;59.792;17.626;2022-10-31T08:04:19;21.57;;;6.93;;
60612;SDS011;46443;59.792;17.626;2022-10-31T08:06:45;21.73;;;7.50;;
60612;SDS011;46443;59.792;17.626;2022-10-31T08:09:13;19.47;;;7.47;;
60612;SDS011;46443;59.792;17.626;2022-10-31T08:11:39;23.93;;;7.80;;
60612;SDS011;46443;59.792;17.626;2022-10-31T08:14:05;20.30;;;7.50;;
60612;SDS011;46443;59.792;17.626;2022-10-31T08:16:31;24.63;;;8.57;;
60612;SDS011;46443;59.792;17.626;2022-10-31T08:18:57;24.53;;;7.97;;
60612;SDS011;46443;59.792;17.626;2022-10-31T08:21:23;26.03;;;7.97;;
60612;SDS011;46443;59.792;17.626;2022-10-31T08:23:49;19.63;;;8.10;;
60612;SDS011;46443;59.792;17.626;2022-10-31T08:26:15;20.40;;;7.67;;
60612;SDS011;46443;59.792;17.626;2022-10-31T08:28:41;23.63;;;8.60;;
60612;SDS011;46443;59.792;17.626;2022-10-31T08:31:07;31.23;;;9.13;;
60612;SDS011;46443;59.792;17.626;2022-10-31T08:33:35;29.23;;;9.77;;
60612;SDS011;46443;59.792;17.626;2022-10-31T08:36:00;29.67;;;9.77;;
60612;SDS011;46443;59.792;17.626;2022-10-31T08:38:26;25.20;;;9.63;;
60612;SDS011;46443;59.792;17.626;2022-10-31T08:40:52;31.87;;;9.40;;
60612;SDS011;46443;59.792;17.626;2022-10-31T08:43:18;28.33;;;9.73;;
60612;SDS011;46443;59.792;17.626;2022-10-31T08:45:47;36.03;;;10.17;;
60612;SDS011;46443;59.792;17.626;2022-10-31T08:48:14;31.17;;;10.07;;
60612;SDS011;46443;59.792;17.626;2022-10-31T08:50:41;36.37;;;10.60;;
60612;SDS011;46443;59.792;17.626;2022-10-31T08:53:09;38.73;;;10.60;;
60612;SDS011;46443;59.792;17.626;2022-10-31T08:55:37;27.35;;;9.25;;
60612;SDS011;46443;59.792;17.626;2022-10-31T08:58:04;30.87;;;9.87;;
60612;SDS011;46443;59.792;17.626;2022-10-31T09:00:31;28.40;;;10.53;;
60612;SDS011;46443;59.792;17.626;2022-10-31T09:03:01;35.87;;;10.87;;
60612;SDS011;46443;59.792;17.626;2022-10-31T09:05:27;38.47;;;10.73;;
60612;SDS011;46443;59.792;17.626;2022-10-31T09:07:56;33.03;;;10.50;;
60612;SDS011;46443;59.792;17.626;2022-10-31T09:10:23;40.20;;;11.55;;
60612;SDS011;46443;59.792;17.626;2022-10-31T09:12:59;28.03;;;10.30;;
60612;SDS011;46443;59.792;17.626;2022-10-31T09:15:26;30.87;;;10.03;;
60612;SDS011;46443;59.792;17.626;2022-10-31T09:17:52;31.43;;;10.70;;
60612;SDS011;46443;59.792;17.626;2022-10-31T09:20:18;35.50;;;10.40;;
60612;SDS011;46443;59.792;17.626;2022-10-31T09:22:44;36.13;;;9.90;;
60612;SDS011;46443;59.792;17.626;2022-10-31T09:25:11;43.43;;;11.50;;
60612;SDS011;46443;59.792;17.626;2022-10-31T09:27:37;31.07;;;10.77;;
60612;SDS011;46443;59.792;17.626;2022-10-31T09:30:03;39.53;;;12.23;;
60612;SDS011;46443;59.792;17.626;2022-10-31T09:32:29;33.33;;;11.43;;
60612;SDS011;46443;59.792;17.626;2022-10-31T09:34:55;33.53;;;11.93;;
60612;SDS011;46443;59.792;17.626;2022-10-31T09:37:21;36.53;;;11.27;;
60612;SDS011;46443;59.792;17.626;2022-10-31T09:39:47;38.27;;;12.30;;
60612;SDS011;46443;59.792;17.626;2022-10-31T09:50:18;36.13;;;10.60;;
60612;SDS011;46443;59.792;17.626;2022-10-31T09:52:51;37.47;;;11.43;;
60612;SDS011;46443;59.792;17.626;2022-10-31T09:55:22;31.80;;;10.83;;
60612;SDS011;46443;59.792;17.626;2022-10-31T09:57:51;35.00;;;10.93;;
60612;SDS011;46443;59.792;17.626;2022-10-31T10:00:18;33.03;;;12.20;;
60612;SDS011;46443;59.792;17.626;2022-10-31T10:02:47;30.70;;;11.33;;
60612;SDS011;46443;59.792;17.626;2022-10-31T10:05:16;34.13;;;11.47;;
60612;SDS011;46443;59.792;17.626;2022-10-31T10:07:47;30.07;;;12.13;;
60612;SDS011;46443;59.792;17.626;2022-10-31T10:10:17;31.43;;;11.77;;
60612;SDS011;46443;59.792;17.626;2022-10-31T10:12:56;30.33;;;11.37;;
60612;SDS011;46443;59.792;17.626;2022-10-31T10:25:53;25.03;;;10.53;;
60612;SDS011;46443;59.792;17.626;2022-10-31T10:28:35;30.20;;;10.60;;
60612;SDS011;46443;59.792;17.626;2022-10-31T10:36:14;25.53;;;9.90;;
60612;SDS011;46443;59.792;17.626;2022-10-31T10:38:47;25.00;;;10.60;;
60612;SDS011;46443;59.792;17.626;2022-10-31T10:41:18;21.37;;;10.17;;
60612;SDS011;46443;59.792;17.626;2022-10-31T10:43:44;19.17;;;9.13;;
60612;SDS011;46443;59.792;17.626;2022-10-31T10:56:59;19.97;;;8.57;;
60612;SDS011;46443;59.792;17.626;2022-10-31T10:59:27;17.87;;;8.67;;
60612;SDS011;46443;59.792;17.626;2022-10-31T11:01:55;17.97;;;8.80;;
60612;SDS011;46443;59.792;17.626;2022-10-31T11:04:24;19.13;;;8.70;;
60612;SDS011;46443;59.792;17.626;2022-10-31T11:07:01;19.23;;;8.52;;
60612;SDS011;46443;59.792;17.626;2022-10-31T11:09:27;17.53;;;8.43;;
60612;SDS011;46443;59.792;17.626;2022-10-31T11:11:53;20.50;;;8.20;;
60612;SDS011;46443;59.792;17.626;2022-10-31T11:14:20;14.73;;;7.50;;
60612;SDS011;46443;59.792;17.626;2022-10-31T11:16:47;14.00;;;7.97;;
60612;SDS011;46443;59.792;17.626;2022-10-31T11:19:21;22.83;;;8.67;;
60612;SDS011;46443;59.792;17.626;2022-10-31T11:21:48;17.47;;;8.17;;
60612;SDS011;46443;59.792;17.626;2022-10-31T11:24:15;15.37;;;7.47;;
60612;SDS011;46443;59.792;17.626;2022-10-31T11:26:43;15.73;;;8.00;;
60612;SDS011;46443;59.792;17.626;2022-10-31T11:29:23;17.40;;;8.17;;
60612;SDS011;46443;59.792;17.626;2022-10-31T11:31:52;15.93;;;7.77;;
60612;SDS011;46443;59.792;17.626;2022-10-31T11:34:23;14.77;;;7.57;;
60612;SDS011;46443;59.792;17.626;2022-10-31T11:36:50;14.60;;;6.60;;
60612;SDS011;46443;59.792;17.626;2022-10-31T11:39:18;14.50;;;7.20;;
60612;SDS011;46443;59.792;17.626;2022-10-31T11:41:45;15.10;;;7.77;;
60612;SDS011;46443;59.792;17.626;2022-10-31T11:44:13;14.93;;;7.70;;
60612;SDS011;46443;59.792;17.626;2022-10-31T11:46:42;12.07;;;6.87;;
60612;SDS011;46443;59.792;17.626;2022-10-31T11:49:15;14.50;;;7.20;;
60612;SDS011;46443;59.792;17.626;2022-10-31T11:51:42;14.73;;;6.53;;
60612;SDS011;46443;59.792;17.626;2022-10-31T11:54:18;12.50;;;7.03;;
60612;SDS011;46443;59.792;17.626;2022-10-31T11:56:45;13.00;;;7.10;;
60612;SDS011;46443;59.792;17.626;2022-10-31T11:59:15;14.77;;;6.83;;
60612;SDS011;46443;59.792;17.626;2022-10-31T12:01:46;15.80;;;6.77;;
60612;SDS011;46443;59.792;17.626;2022-10-31T12:04:12;13.68;;;6.90;;
60612;SDS011;46443;59.792;17.626;2022-10-31T12:06:39;14.93;;;6.53;;
60612;SDS011;46443;59.792;17.626;2022-10-31T12:09:28;13.47;;;6.60;;
60612;SDS011;46443;59.792;17.626;2022-10-31T12:12:10;12.90;;;7.00;;
60612;SDS011;46443;59.792;17.626;2022-10-31T12:14:44;14.33;;;6.33;;
60612;SDS011;46443;59.792;17.626;2022-10-31T12:17:14;15.90;;;7.37;;
60612;SDS011;46443;59.792;17.626;2022-10-31T12:20:00;15.13;;;6.83;;
60612;SDS011;46443;59.792;17.626;2022-10-31T12:32:33;16.67;;;7.87;;
60612;SDS011;46443;59.792;17.626;2022-10-31T12:37:46;13.60;;;7.27;;
60612;SDS011;46443;59.792;17.626;2022-10-31T12:40:27;13.35;;;7.20;;
60612;SDS011;46443;59.792;17.626;2022-10-31T12:55:44;14.57;;;6.83;;
60612;SDS011;46443;59.792;17.626;2022-10-31T12:58:17;13.83;;;7.17;;
60612;SDS011;46443;59.792;17.626;2022-10-31T13:00:46;16.00;;;7.27;;
60612;SDS011;46443;59.792;17.626;2022-10-31T13:03:22;12.93;;;7.33;;
60612;SDS011;46443;59.792;17.626;2022-10-31T13:05:51;16.33;;;7.73;;
60612;SDS011;46443;59.792;17.626;2022-10-31T13:08:24;13.13;;;7.22;;
60612;SDS011;46443;59.792;17.626;2022-10-31T13:10:52;13.43;;;6.37;;
60612;SDS011;46443;59.792;17.626;2022-10-31T13:13:26;13.13;;;6.47;;
60612;SDS011;46443;59.792;17.626;2022-10-31T13:15:57;14.50;;;7.30;;
60612;SDS011;46443;59.792;17.626;2022-10-31T13:18:35;11.37;;;7.17;;
60612;SDS011;46443;59.792;17.626;2022-10-31T13:21:07;11.52;;;6.38;;
60612;SDS011;46443;59.792;17.626;2022-10-31T13:23:34;15.10;;;6.68;;
60612;SDS011;46443;59.792;17.626;2022-10-31T13:26:12;13.47;;;6.67;;
60612;SDS011;46443;59.792;17.626;2022-10-31T13:28:50;11.57;;;6.03;;
60612;SDS011;46443;59.792;17.626;2022-10-31T13:31:18;9.60;;;5.53;;
60612;SDS011;46443;59.792;17.626;2022-10-31T13:38:57;15.60;;;6.37;;
60612;SDS011;46443;59.792;17.626;2022-10-31T13:48:58;14.25;;;6.15;;
60612;SDS011;46443;59.792;17.626;2022-10-31T13:51:25;12.60;;;6.40;;
60612;SDS011;46443;59.792;17.626;2022-10-31T13:53:57;12.57;;;6.43;;
60612;SDS011;46443;59.792;17.626;2022-10-31T13:56:25;18.30;;;7.37;;
60612;SDS011;46443;59.792;17.626;2022-10-31T14:01:24;14.90;;;6.70;;
60612;SDS011;46443;59.792;17.626;2022-10-31T14:06:42;13.00;;;6.40;;
60612;SDS011;46443;59.792;17.626;2022-10-31T14:09:19;14.23;;;7.43;;
60612;SDS011;46443;59.792;17.626;2022-10-31T14:11:46;16.13;;;7.17;;
60612;SDS011;46443;59.792;17.626;2022-10-31T14:14:13;14.00;;;7.50;;
60612;SDS011;46443;59.792;17.626;2022-10-31T14:16:39;16.93;;;7.90;;
60612;SDS011;46443;59.792;17.626;2022-10-31T14:19:07;14.67;;;7.17;;
60612;SDS011;46443;59.792;17.626;2022-10-31T14:21:39;14.07;;;6.37;;
60612;SDS011;46443;59.792;17.626;2022-10-31T14:24:14;13.10;;;6.50;;
60612;SDS011;46443;59.792;17.626;2022-10-31T14:26:50;12.77;;;5.90;;
60612;SDS011;46443;59.792;17.626;2022-10-31T14:31:43;11.90;;;6.70;;
60612;SDS011;46443;59.792;17.626;2022-10-31T14:36:56;12.67;;;6.60;;
60612;SDS011;46443;59.792;17.626;2022-10-31T14:39:31;13.60;;;7.27;;
60612;SDS011;46443;59.792;17.626;2022-10-31T14:42:04;14.23;;;6.77;;
60612;SDS011;46443;59.792;17.626;2022-10-31T14:44:45;15.27;;;6.73;;
60612;SDS011;46443;59.792;17.626;2022-10-31T14:52:27;18.17;;;7.90;;
60612;SDS011;46443;59.792;17.626;2022-10-31T14:54:54;15.80;;;6.70;;
60612;SDS011;46443;59.792;17.626;2022-10-31T14:57:25;16.53;;;8.07;;
60612;SDS011;46443;59.792;17.626;2022-10-31T14:59:54;16.00;;;6.70;;
60612;SDS011;46443;59.792;17.626;2022-10-31T15:02:24;16.42;;;7.50;;
60612;SDS011;46443;59.792;17.626;2022-10-31T15:04:52;16.23;;;7.03;;
60612;SDS011;46443;59.792;17.626;2022-10-31T15:07:26;14.87;;;7.10;;
60612;SDS011;46443;59.792;17.626;2022-10-31T15:09:56;15.53;;;7.57;;
60612;SDS011;46443;59.792;17.626;2022-10-31T15:14:48;13.73;;;6.60;;
60612;SDS011;46443;59.792;17.626;2022-10-31T15:17:14;14.20;;;6.73;;
60612;SDS011;46443;59.792;17.626;2022-10-31T15:19:41;17.07;;;7.90;;
60612;SDS011;46443;59.792;17.626;2022-10-31T15:22:10;20.08;;;8.90;;
60612;SDS011;46443;59.792;17.626;2022-10-31T15:24:39;22.08;;;8.48;;
60612;SDS011;46443;59.792;17.626;2022-10-31T15:27:05;18.03;;;8.23;;
60612;SDS011;46443;59.792;17.626;2022-10-31T15:29:36;18.67;;;7.77;;
60612;SDS011;46443;59.792;17.626;2022-10-31T15:32:18;19.70;;;7.90;;
60612;SDS011;46443;59.792;17.626;2022-10-31T15:34:45;13.37;;;6.63;;
60612;SDS011;46443;59.792;17.626;2022-10-31T15:37:12;15.50;;;7.50;;
60612;SDS011;46443;59.792;17.626;2022-10-31T15:39:39;14.33;;;6.90;;
60612;SDS011;46443;59.792;17.626;2022-10-31T15:42:17;13.53;;;6.90;;
60612;SDS011;46443;59.792;17.626;2022-10-31T15:44:44;17.90;;;7.10;;
60612;SDS011;46443;59.792;17.626;2022-10-31T15:47:16;14.93;;;6.53;;
60612;SDS011;46443;59.792;17.626;2022-10-31T15:49:53;18.70;;;6.80;;
60612;SDS011;46443;59.792;17.626;2022-10-31T15:55:36;17.70;;;7.23;;
60612;SDS011;46443;59.792;17.626;2022-10-31T15:57:47;15.82;;;6.97;;
60612;SDS011;46443;59.792;17.626;2022-10-31T16:00:26;18.93;;;6.97;;
60612;SDS011;46443;59.792;17.626;2022-10-31T16:03:19;13.65;;;6.32;;
60612;SDS011;46443;59.792;17.626;2022-10-31T16:10:54;15.50;;;6.77;;
60612;SDS011;46443;59.792;17.626;2022-10-31T16:13:24;16.97;;;6.03;;
60612;SDS011;46443;59.792;17.626;2022-10-31T16:15:56;15.23;;;6.97;;
60612;SDS011;46443;59.792;17.626;2022-10-31T16:18:24;18.20;;;6.50;;
60612;SDS011;46443;59.792;17.626;2022-10-31T16:20:51;14.40;;;6.90;;
60612;SDS011;46443;59.792;17.626;2022-10-31T16:23:19;16.70;;;7.00;;
60612;SDS011;46443;59.792;17.626;2022-10-31T16:25:46;11.80;;;6.27;;
60612;SDS011;46443;59.792;17.626;2022-10-31T16:28:19;14.53;;;6.43;;
60612;SDS011;46443;59.792;17.626;2022-10-31T16:30:47;15.77;;;6.43;;
60612;SDS011;46443;59.792;17.626;2022-10-31T16:35:46;12.47;;;6.20;;
60612;SDS011;46443;59.792;17.626;2022-10-31T16:38:13;14.70;;;6.57;;